Time;durP1;ratioP1;P1;durP2;ratioP2;P2;SDS_P1;SDS_P2;PMS_P1;PMS_P2;Temp;Humidity;BMP_temperature;BMP_pressure;BME280_temperature;BME280_humidity;BME280_pressure;Samples;Min_cycle;Max_cycle;Signal;HPM_P1;HPM_P2
2023/08/31 00:01:33;;;;;;;;;7.00;5.00;;;;;;;;5074094;28;45466;-69
2023/08/31 00:03:59;;;;;;;;;8.33;5.00;;;;;;;;5068313;27;46122;-70
2023/08/31 00:06:25;;;;;;;;;7.33;6.00;;;;;;;;5074192;27;45494;-69
2023/08/31 00:08:50;;;;;;;;;9.33;8.00;;;;;;;;5073452;27;45812;-70
2023/08/31 00:11:16;;;;;;;;;10.00;7.33;;;;;;;;5073087;28;45577;-69
2023/08/31 00:13:41;;;;;;;;;7.00;5.33;;;;;;;;5073277;27;47058;-70
2023/08/31 00:16:09;;;;;;;;;7.00;5.33;;;;;;;;5073265;28;45607;-68
2023/08/31 00:18:35;;;;;;;;;10.67;9.00;;;;;;;;5072649;28;45906;-71
2023/08/31 00:21:01;;;;;;;;;5.00;5.00;;;;;;;;5069817;27;45842;-70
2023/08/31 00:23:26;;;;;;;;;43.33;33.00;;;;;;;;5070633;27;46053;-70
2023/08/31 00:25:53;;;;;;;;;9.00;6.67;;;;;;;;5073738;28;45505;-70
2023/08/31 00:28:18;;;;;;;;;6.33;6.33;;;;;;;;5071046;28;45801;-69
2023/08/31 00:30:48;;;;;;;;;17.33;14.67;;;;;;;;5072721;27;45844;-70
2023/08/31 00:33:14;;;;;;;;;15.67;12.00;;;;;;;;5072452;27;46133;-69
2023/08/31 00:35:43;;;;;;;;;8.33;7.00;;;;;;;;5073139;27;45465;-71
2023/08/31 00:38:09;;;;;;;;;6.00;5.00;;;;;;;;5068383;28;45712;-69
2023/08/31 00:40:39;;;;;;;;;8.33;8.33;;;;;;;;5066864;27;46174;-70
2023/08/31 00:43:04;;;;;;;;;10.33;8.00;;;;;;;;5082532;27;48371;-69
2023/08/31 00:45:30;;;;;;;;;8.67;8.33;;;;;;;;5072197;27;45446;-70
2023/08/31 00:47:57;;;;;;;;;24.67;15.67;;;;;;;;5060508;27;45797;-69
2023/08/31 00:50:22;;;;;;;;;11.00;7.67;;;;;;;;5072914;27;46063;-70
2023/08/31 00:52:47;;;;;;;;;5.00;4.00;;;;;;;;5072900;27;46028;-69
2023/08/31 00:55:13;;;;;;;;;4.00;4.00;;;;;;;;5072569;27;45511;-70
2023/08/31 00:57:38;;;;;;;;;4.00;4.00;;;;;;;;5072475;28;45395;-70
2023/08/31 01:00:07;;;;;;;;;6.67;6.67;;;;;;;;5072395;28;45736;-69
2023/08/31 01:02:40;;;;;;;;;7.33;4.33;;;;;;;;5071753;28;45349;-69
2023/08/31 01:05:09;;;;;;;;;5.00;4.00;;;;;;;;5065595;27;45364;-69
2023/08/31 01:07:48;;;;;;;;;6.00;2.00;;;;;;;;5080246;27;45562;-69
2023/08/31 01:10:17;;;;;;;;;4.33;3.67;;;;;;;;5076072;27;45380;-68
2023/08/31 01:13:02;;;;;;;;;9.00;8.33;;;;;;;;5072038;27;46902;-70
2023/08/31 01:15:31;;;;;;;;;9.00;8.33;;;;;;;;5070950;28;45736;-70
2023/08/31 01:17:57;;;;;;;;;8.33;6.00;;;;;;;;5069202;28;45476;-70
2023/08/31 01:20:28;;;;;;;;;4.00;4.00;;;;;;;;5064563;28;45787;-69
2023/08/31 01:23:00;;;;;;;;;3.00;3.00;;;;;;;;5063564;28;45865;-69
2023/08/31 01:25:25;;;;;;;;;5.33;3.00;;;;;;;;5067542;27;45533;-69
2023/08/31 01:27:51;;;;;;;;;3.67;3.67;;;;;;;;5074983;27;45577;-70
2023/08/31 01:30:17;;;;;;;;;3.00;3.00;;;;;;;;5070604;28;45742;-70
2023/08/31 01:32:45;;;;;;;;;9.33;6.67;;;;;;;;5062207;28;47044;-70
2023/08/31 01:35:11;;;;;;;;;4.67;4.67;;;;;;;;5071828;27;45384;-69
2023/08/31 01:37:36;;;;;;;;;6.00;5.67;;;;;;;;5087749;27;45419;-69
2023/08/31 01:40:05;;;;;;;;;9.33;5.00;;;;;;;;5064731;27;47678;-68
2023/08/31 01:42:31;;;;;;;;;5.00;5.00;;;;;;;;5082744;27;45731;-71
2023/08/31 01:44:57;;;;;;;;;2.33;2.33;;;;;;;;5069937;28;45818;-70
2023/08/31 01:47:22;;;;;;;;;6.00;5.00;;;;;;;;5065606;28;45293;-70
2023/08/31 01:49:48;;;;;;;;;4.67;4.67;;;;;;;;5070876;27;46395;-68
2023/08/31 01:52:13;;;;;;;;;4.00;3.00;;;;;;;;5072465;27;45384;-70
2023/08/31 01:54:38;;;;;;;;;4.00;3.00;;;;;;;;5074554;28;45328;-70
2023/08/31 01:57:04;;;;;;;;;2.50;1.25;;;;;;;;5070350;27;46313;-71
2023/08/31 01:59:29;;;;;;;;;6.00;6.00;;;;;;;;5075596;27;45724;-70
2023/08/31 02:01:54;;;;;;;;;10.00;6.00;;;;;;;;5075162;27;45725;-69
2023/08/31 02:04:20;;;;;;;;;13.67;9.67;;;;;;;;5073792;28;45466;-70
2023/08/31 02:06:45;;;;;;;;;11.33;9.33;;;;;;;;5091390;27;45404;-69
2023/08/31 02:09:10;;;;;;;;;8.67;5.67;;;;;;;;5075240;28;45891;-69
2023/08/31 02:11:37;;;;;;;;;6.67;4.67;;;;;;;;5075149;28;45392;-70
2023/08/31 02:14:03;;;;;;;;;4.00;3.00;;;;;;;;5075217;28;45851;-69
2023/08/31 02:16:28;;;;;;;;;10.00;6.33;;;;;;;;5074876;27;45704;-70
2023/08/31 02:18:54;;;;;;;;;12.33;8.67;;;;;;;;5075117;28;45717;-70
2023/08/31 02:21:19;;;;;;;;;5.67;4.00;;;;;;;;5075555;28;45436;-68
2023/08/31 02:23:45;;;;;;;;;4.67;3.67;;;;;;;;5074541;27;45403;-69
2023/08/31 02:26:11;;;;;;;;;5.00;5.00;;;;;;;;5075007;28;45647;-69
2023/08/31 02:28:36;;;;;;;;;7.00;6.00;;;;;;;;5074738;27;45463;-69
2023/08/31 02:31:02;;;;;;;;;6.00;3.33;;;;;;;;5074871;28;46677;-69
2023/08/31 02:33:27;;;;;;;;;6.67;4.67;;;;;;;;5075884;27;45332;-69
2023/08/31 02:35:53;;;;;;;;;4.67;3.67;;;;;;;;5075054;27;45617;-69
2023/08/31 02:38:19;;;;;;;;;3.33;3.33;;;;;;;;5073904;27;45696;-71
2023/08/31 02:40:46;;;;;;;;;7.33;6.00;;;;;;;;5074512;27;45387;-69
2023/08/31 02:43:11;;;;;;;;;7.67;6.67;;;;;;;;5074638;27;45806;-70
2023/08/31 02:45:36;;;;;;;;;3.67;3.33;;;;;;;;5072472;28;45757;-69
2023/08/31 02:48:03;;;;;;;;;4.33;4.33;;;;;;;;5058962;27;45440;-69
2023/08/31 02:50:28;;;;;;;;;7.67;5.00;;;;;;;;5083852;27;45442;-69
2023/08/31 02:52:54;;;;;;;;;9.00;5.33;;;;;;;;5073160;28;45571;-71
2023/08/31 02:55:19;;;;;;;;;6.33;5.33;;;;;;;;5073044;27;45762;-68
2023/08/31 02:57:44;;;;;;;;;6.33;5.00;;;;;;;;5072180;27;45607;-68
2023/08/31 03:00:12;;;;;;;;;6.33;5.00;;;;;;;;5061975;27;46501;-71
2023/08/31 03:02:38;;;;;;;;;6.00;5.00;;;;;;;;5060204;27;45834;-69
2023/08/31 03:05:03;;;;;;;;;7.33;4.67;;;;;;;;5066098;27;45338;-70
2023/08/31 03:07:28;;;;;;;;;3.33;2.67;;;;;;;;5069568;28;46106;-70
2023/08/31 03:09:54;;;;;;;;;9.33;7.67;;;;;;;;5073974;27;45707;-70
2023/08/31 03:12:19;;;;;;;;;4.33;3.00;;;;;;;;5073775;27;45893;-68
2023/08/31 03:14:44;;;;;;;;;5.33;4.00;;;;;;;;5074454;27;45899;-69
2023/08/31 03:17:09;;;;;;;;;6.00;5.00;;;;;;;;5074495;28;45865;-69
2023/08/31 03:19:35;;;;;;;;;4.00;3.00;;;;;;;;5071372;28;46035;-70
2023/08/31 03:22:00;;;;;;;;;4.33;3.00;;;;;;;;5070778;27;45462;-69
2023/08/31 03:24:25;;;;;;;;;11.33;8.67;;;;;;;;5074635;28;45402;-68
2023/08/31 03:26:50;;;;;;;;;4.33;4.33;;;;;;;;5072174;27;45687;-69
2023/08/31 03:29:16;;;;;;;;;3.33;2.33;;;;;;;;5067008;28;47358;-69
2023/08/31 03:31:41;;;;;;;;;5.67;4.00;;;;;;;;5073446;27;45343;-69
2023/08/31 03:34:06;;;;;;;;;9.00;4.00;;;;;;;;5074098;27;45344;-69
2023/08/31 03:36:31;;;;;;;;;6.00;2.33;;;;;;;;5073071;27;45384;-70
2023/08/31 03:38:57;;;;;;;;;3.67;3.67;;;;;;;;5073553;28;46790;-69
2023/08/31 03:41:22;;;;;;;;;4.33;4.33;;;;;;;;5069487;27;45571;-69
2023/08/31 03:43:47;;;;;;;;;3.67;3.67;;;;;;;;5074126;27;45374;-69
2023/08/31 03:46:12;;;;;;;;;11.67;6.00;;;;;;;;5069312;28;45975;-69
2023/08/31 03:48:38;;;;;;;;;4.33;4.33;;;;;;;;5089659;27;47012;-70
2023/08/31 03:51:03;;;;;;;;;7.00;5.00;;;;;;;;5078800;27;46092;-70
2023/08/31 03:53:29;;;;;;;;;2.00;2.00;;;;;;;;5073669;27;45960;-68
2023/08/31 03:55:54;;;;;;;;;3.00;3.00;;;;;;;;5073021;28;45790;-68
2023/08/31 03:58:20;;;;;;;;;3.67;3.67;;;;;;;;5072270;28;45465;-69
2023/08/31 04:00:48;;;;;;;;;2.67;2.67;;;;;;;;5068620;28;45417;-70
2023/08/31 04:03:14;;;;;;;;;5.67;4.67;;;;;;;;5074068;27;45711;-70
2023/08/31 04:05:39;;;;;;;;;3.00;3.00;;;;;;;;5072222;28;46810;-68
2023/08/31 04:08:04;;;;;;;;;5.00;4.00;;;;;;;;5068170;28;46180;-69
2023/08/31 04:10:31;;;;;;;;;6.00;4.00;;;;;;;;5071974;27;45750;-69
2023/08/31 04:12:56;;;;;;;;;3.00;3.00;;;;;;;;5072280;28;45834;-69
2023/08/31 04:15:22;;;;;;;;;8.00;4.00;;;;;;;;5070995;28;45399;-69
2023/08/31 04:17:47;;;;;;;;;5.67;4.00;;;;;;;;5072488;27;45598;-71
2023/08/31 04:20:12;;;;;;;;;6.67;3.33;;;;;;;;5073154;27;45363;-68
2023/08/31 04:22:38;;;;;;;;;5.75;4.25;;;;;;;;5073140;28;45366;-69
2023/08/31 04:25:03;;;;;;;;;2.67;2.33;;;;;;;;5071361;28;45645;-67
2023/08/31 04:27:31;;;;;;;;;4.00;3.33;;;;;;;;5073072;28;45739;-69
2023/08/31 04:29:56;;;;;;;;;2.00;2.00;;;;;;;;5072829;28;45264;-67
2023/08/31 04:32:21;;;;;;;;;3.67;3.00;;;;;;;;5052955;28;45618;-67
2023/08/31 04:34:47;;;;;;;;;4.00;4.00;;;;;;;;5058156;28;45699;-69
2023/08/31 04:37:12;;;;;;;;;5.67;3.00;;;;;;;;5071891;27;45500;-68
2023/08/31 04:39:37;;;;;;;;;5.67;4.33;;;;;;;;5072088;28;45422;-67
2023/08/31 04:42:02;;;;;;;;;4.33;3.33;;;;;;;;5071934;28;45376;-68
2023/08/31 04:44:28;;;;;;;;;11.67;7.00;;;;;;;;5072740;27;45295;-69
2023/08/31 04:46:54;;;;;;;;;4.00;3.33;;;;;;;;5073094;28;46405;-69
2023/08/31 04:49:20;;;;;;;;;4.00;2.67;;;;;;;;5072741;27;45889;-69
2023/08/31 04:51:46;;;;;;;;;3.67;2.67;;;;;;;;5071620;27;45503;-68
2023/08/31 04:54:11;;;;;;;;;3.67;3.33;;;;;;;;5073109;28;45477;-70
2023/08/31 04:56:37;;;;;;;;;3.00;3.00;;;;;;;;5070320;27;47919;-70
2023/08/31 04:59:05;;;;;;;;;5.00;4.00;;;;;;;;5071294;27;45518;-70
2023/08/31 05:01:30;;;;;;;;;7.67;5.33;;;;;;;;5071640;28;45711;-71
2023/08/31 05:03:55;;;;;;;;;6.33;5.00;;;;;;;;5071306;28;46825;-70
2023/08/31 05:06:21;;;;;;;;;6.67;5.00;;;;;;;;5072449;27;45373;-72
2023/08/31 05:08:49;;;;;;;;;6.33;5.00;;;;;;;;5071645;28;45406;-66
2023/08/31 05:11:14;;;;;;;;;6.67;4.33;;;;;;;;5071484;27;45427;-69
2023/08/31 05:13:42;;;;;;;;;3.00;3.00;;;;;;;;5071425;27;45680;-68
2023/08/31 05:16:07;;;;;;;;;5.00;4.00;;;;;;;;5070376;28;48313;-68
2023/08/31 05:18:33;;;;;;;;;2.33;2.00;;;;;;;;5070128;27;45464;-68
2023/08/31 05:20:58;;;;;;;;;4.50;4.00;;;;;;;;5072190;27;45760;-70
2023/08/31 05:23:23;;;;;;;;;3.00;3.00;;;;;;;;5071640;27;45901;-67
2023/08/31 05:25:53;;;;;;;;;5.67;5.67;;;;;;;;5071091;28;45569;-68
2023/08/31 05:28:18;;;;;;;;;4.33;4.33;;;;;;;;5086939;27;45426;-68
2023/08/31 05:30:50;;;;;;;;;7.00;4.67;;;;;;;;5075862;27;45420;-68
2023/08/31 05:33:16;;;;;;;;;6.00;3.00;;;;;;;;5063696;27;45831;-67
2023/08/31 05:35:42;;;;;;;;;2.50;2.50;;;;;;;;5075371;27;45407;-68
2023/08/31 05:38:07;;;;;;;;;2.33;2.00;;;;;;;;5075875;28;45487;-67
2023/08/31 05:40:32;;;;;;;;;4.67;3.00;;;;;;;;5074532;27;45332;-67
2023/08/31 05:42:57;;;;;;;;;5.25;3.00;;;;;;;;5075452;27;45645;-68
2023/08/31 05:45:23;;;;;;;;;5.00;3.33;;;;;;;;5075327;28;46191;-68
2023/08/31 05:47:48;;;;;;;;;4.25;3.25;;;;;;;;5076262;27;45282;-68
2023/08/31 05:50:13;;;;;;;;;5.67;3.00;;;;;;;;5075461;28;45364;-68
2023/08/31 05:52:43;;;;;;;;;6.67;5.00;;;;;;;;5075471;27;45496;-69
2023/08/31 05:55:08;;;;;;;;;5.67;4.00;;;;;;;;5091548;27;45806;-69
2023/08/31 05:57:34;;;;;;;;;4.33;4.00;;;;;;;;5075426;27;45328;-68
2023/08/31 05:59:59;;;;;;;;;4.33;3.00;;;;;;;;5074943;27;45825;-69
2023/08/31 06:02:24;;;;;;;;;6.67;4.00;;;;;;;;5073489;28;46702;-70
2023/08/31 06:04:49;;;;;;;;;4.00;3.67;;;;;;;;5070727;27;45737;-71
2023/08/31 06:07:15;;;;;;;;;7.00;4.33;;;;;;;;5057127;27;45565;-67
2023/08/31 06:09:40;;;;;;;;;5.33;2.67;;;;;;;;5072187;27;46037;-69
2023/08/31 06:12:06;;;;;;;;;3.00;3.00;;;;;;;;5071569;27;45396;-69
2023/08/31 06:14:32;;;;;;;;;5.33;2.33;;;;;;;;5082051;27;46959;-69
2023/08/31 06:16:58;;;;;;;;;4.00;3.00;;;;;;;;5066291;28;45859;-67
2023/08/31 06:19:23;;;;;;;;;4.33;4.00;;;;;;;;5060194;27;45584;-69
2023/08/31 06:21:48;;;;;;;;;4.33;3.00;;;;;;;;5070472;27;45367;-70
2023/08/31 06:24:14;;;;;;;;;3.75;3.50;;;;;;;;5066586;27;45735;-68
2023/08/31 06:26:40;;;;;;;;;2.25;2.25;;;;;;;;5067190;27;45502;-70
2023/08/31 06:29:05;;;;;;;;;3.75;2.50;;;;;;;;5062749;27;45511;-68
2023/08/31 06:31:31;;;;;;;;;3.33;3.00;;;;;;;;5062559;27;45872;-68
2023/08/31 06:33:56;;;;;;;;;4.33;3.33;;;;;;;;5071801;27;46237;-69
2023/08/31 06:36:21;;;;;;;;;3.00;2.00;;;;;;;;5065302;27;45932;-70
2023/08/31 06:38:46;;;;;;;;;5.50;3.00;;;;;;;;5056962;27;45821;-68
2023/08/31 06:41:12;;;;;;;;;3.50;1.75;;;;;;;;5066372;27;46128;-66
2023/08/31 06:43:37;;;;;;;;;4.50;3.75;;;;;;;;5071138;28;46140;-67
2023/08/31 06:46:02;;;;;;;;;5.00;3.00;;;;;;;;5066188;27;45636;-69
2023/08/31 06:48:27;;;;;;;;;4.00;3.00;;;;;;;;5065887;27;45556;-68
2023/08/31 06:50:52;;;;;;;;;4.00;2.25;;;;;;;;5071824;27;45868;-68
2023/08/31 06:53:18;;;;;;;;;1.75;1.50;;;;;;;;5072264;27;45773;-67
2023/08/31 06:55:44;;;;;;;;;5.75;4.75;;;;;;;;5072847;27;45551;-67
2023/08/31 06:58:09;;;;;;;;;4.00;4.00;;;;;;;;5073622;27;45431;-69
2023/08/31 07:00:34;;;;;;;;;2.75;2.50;;;;;;;;5071302;27;45466;-70
2023/08/31 07:03:00;;;;;;;;;5.50;3.25;;;;;;;;5068003;27;49315;-68
2023/08/31 07:05:26;;;;;;;;;5.25;3.25;;;;;;;;5066279;27;45685;-70
2023/08/31 07:07:54;;;;;;;;;7.75;7.75;;;;;;;;5074440;27;45363;-68
2023/08/31 07:10:20;;;;;;;;;3.75;3.00;;;;;;;;5072164;28;45561;-68
2023/08/31 07:12:45;;;;;;;;;4.75;4.50;;;;;;;;5077351;27;47503;-70
2023/08/31 07:15:10;;;;;;;;;4.00;3.00;;;;;;;;5073777;27;45753;-69
2023/08/31 07:17:36;;;;;;;;;5.25;3.50;;;;;;;;5074447;28;45676;-71
2023/08/31 07:20:01;;;;;;;;;3.00;2.00;;;;;;;;5073593;28;45930;-70
2023/08/31 07:22:26;;;;;;;;;3.25;3.00;;;;;;;;5072572;28;46442;-71
2023/08/31 07:24:51;;;;;;;;;4.00;4.00;;;;;;;;5072232;28;45378;-69
2023/08/31 07:27:16;;;;;;;;;5.50;3.50;;;;;;;;5067065;27;45499;-72
2023/08/31 07:29:42;;;;;;;;;4.50;2.75;;;;;;;;5079251;27;45259;-70
2023/08/31 07:32:07;;;;;;;;;4.00;3.75;;;;;;;;5072996;27;45537;-70
2023/08/31 07:34:33;;;;;;;;;6.50;5.25;;;;;;;;5073923;27;45373;-69
2023/08/31 07:36:59;;;;;;;;;5.75;3.50;;;;;;;;5073677;27;45575;-69
2023/08/31 07:39:24;;;;;;;;;5.75;5.25;;;;;;;;5073943;27;45356;-69
2023/08/31 07:41:49;;;;;;;;;4.50;4.00;;;;;;;;5069344;28;45507;-69
2023/08/31 07:44:15;;;;;;;;;4.25;4.00;;;;;;;;5068469;27;45821;-70
2023/08/31 07:46:40;;;;;;;;;4.00;3.00;;;;;;;;5073274;27;45482;-70
2023/08/31 07:49:06;;;;;;;;;4.25;1.50;;;;;;;;5073108;28;45659;-70
2023/08/31 07:51:31;;;;;;;;;5.50;4.00;;;;;;;;5073328;27;45793;-70
2023/08/31 07:53:56;;;;;;;;;3.75;2.50;;;;;;;;5092176;27;45999;-69
2023/08/31 07:56:23;;;;;;;;;5.00;3.00;;;;;;;;5073912;28;45571;-68
2023/08/31 07:58:48;;;;;;;;;3.50;3.50;;;;;;;;5073751;27;45629;-69
2023/08/31 08:01:13;;;;;;;;;8.00;5.00;;;;;;;;5072175;27;45647;-69
2023/08/31 08:03:38;;;;;;;;;4.00;2.75;;;;;;;;5073371;27;45772;-70
2023/08/31 08:06:04;;;;;;;;;2.25;2.00;;;;;;;;5070306;28;45810;-69
2023/08/31 08:08:29;;;;;;;;;3.00;1.00;;;;;;;;5067125;27;45434;-71
2023/08/31 08:10:54;;;;;;;;;3.25;2.50;;;;;;;;5073238;28;45319;-70
2023/08/31 08:13:20;;;;;;;;;1.50;1.00;;;;;;;;5072155;27;45278;-70
2023/08/31 08:15:46;;;;;;;;;4.00;2.25;;;;;;;;5071698;27;45813;-69
2023/08/31 08:18:11;;;;;;;;;3.25;1.75;;;;;;;;5073280;27;45546;-70
2023/08/31 08:20:36;;;;;;;;;3.75;3.50;;;;;;;;5073018;27;46331;-70
2023/08/31 08:23:01;;;;;;;;;3.00;3.00;;;;;;;;5070047;28;45935;-69
2023/08/31 08:25:27;;;;;;;;;4.75;2.50;;;;;;;;5073796;27;45601;-69
2023/08/31 08:27:52;;;;;;;;;2.25;2.25;;;;;;;;5067516;27;45763;-69
2023/08/31 08:30:18;;;;;;;;;4.75;4.00;;;;;;;;5068920;27;45733;-70
2023/08/31 08:32:44;;;;;;;;;3.00;2.00;;;;;;;;5066106;28;45408;-70
2023/08/31 08:35:09;;;;;;;;;2.50;1.50;;;;;;;;5088690;27;45424;-70
2023/08/31 08:37:34;;;;;;;;;3.00;2.00;;;;;;;;5070978;28;45236;-70
2023/08/31 08:40:00;;;;;;;;;1.00;1.00;;;;;;;;5069880;28;46271;-72
2023/08/31 08:42:25;;;;;;;;;3.00;3.00;;;;;;;;5066284;27;45592;-70
2023/08/31 08:44:51;;;;;;;;;1.00;1.00;;;;;;;;5071922;28;45714;-69
2023/08/31 08:47:17;;;;;;;;;4.00;3.00;;;;;;;;5070920;28;45747;-71
2023/08/31 08:49:42;;;;;;;;;6.00;1.50;;;;;;;;5069157;28;46367;-69
2023/08/31 08:52:08;;;;;;;;;2.00;2.00;;;;;;;;5072533;27;45470;-70
2023/08/31 08:54:33;;;;;;;;;6.25;2.50;;;;;;;;5066522;28;45658;-71
2023/08/31 08:57:00;;;;;;;;;3.50;3.25;;;;;;;;5066785;28;46765;-70
2023/08/31 08:59:26;;;;;;;;;1.50;1.50;;;;;;;;5070324;28;46217;-70
2023/08/31 09:01:53;;;;;;;;;3.00;3.00;;;;;;;;5076721;27;45834;-69
2023/08/31 09:04:19;;;;;;;;;1.50;1.50;;;;;;;;5071167;28;45345;-68
2023/08/31 09:06:44;;;;;;;;;2.00;2.00;;;;;;;;5071266;28;45867;-70
2023/08/31 09:09:10;;;;;;;;;3.75;3.00;;;;;;;;5064139;27;46173;-69
2023/08/31 09:11:35;;;;;;;;;3.75;2.00;;;;;;;;5069075;27;46452;-69
2023/08/31 09:14:13;;;;;;;;;16.67;12.00;;;;;;;;5067815;28;45491;-69
2023/08/31 09:16:44;;;;;;;;;4.25;4.25;;;;;;;;5071512;27;45608;-69
2023/08/31 09:19:27;;;;;;;;;3.50;2.25;;;;;;;;5071413;28;45767;-69
2023/08/31 09:21:55;;;;;;;;;33.33;30.67;;;;;;;;5070243;28;45605;-69
2023/08/31 09:24:20;;;;;;;;;21.67;17.33;;;;;;;;5072045;27;45403;-69
2023/08/31 09:26:48;;;;;;;;;11.50;11.25;;;;;;;;5069674;27;45885;-69
2023/08/31 09:29:14;;;;;;;;;3.00;3.00;;;;;;;;5065476;28;45528;-70
2023/08/31 09:31:44;;;;;;;;;2.75;2.75;;;;;;;;5071126;28;45360;-69
2023/08/31 09:34:09;;;;;;;;;3.75;2.25;;;;;;;;5071873;27;45762;-69
2023/08/31 09:36:34;;;;;;;;;4.50;2.00;;;;;;;;5068668;27;45435;-70
2023/08/31 09:38:59;;;;;;;;;4.00;2.25;;;;;;;;5066452;28;47235;-69
2023/08/31 09:41:25;;;;;;;;;3.25;1.75;;;;;;;;5066043;27;45762;-71
2023/08/31 09:43:50;;;;;;;;;5.50;5.50;;;;;;;;5075622;27;45455;-69
2023/08/31 09:46:16;;;;;;;;;5.00;4.00;;;;;;;;5071052;28;45755;-70
2023/08/31 09:48:42;;;;;;;;;6.25;4.00;;;;;;;;5067493;27;46733;-69
2023/08/31 09:51:07;;;;;;;;;4.25;3.00;;;;;;;;5068015;28;45621;-70
2023/08/31 09:53:35;;;;;;;;;2.75;2.00;;;;;;;;5067553;28;45652;-70
2023/08/31 09:56:02;;;;;;;;;3.00;3.00;;;;;;;;5069224;27;45512;-71
2023/08/31 09:58:28;;;;;;;;;3.50;3.50;;;;;;;;5070704;27;46432;-67
2023/08/31 10:00:53;;;;;;;;;4.75;3.25;;;;;;;;5068480;27;45576;-71
2023/08/31 10:03:20;;;;;;;;;3.75;3.50;;;;;;;;5071309;28;45832;-70
2023/08/31 10:05:49;;;;;;;;;2.00;2.00;;;;;;;;5070256;28;45866;-72
2023/08/31 10:08:15;;;;;;;;;3.25;3.25;;;;;;;;5069343;28;46108;-70
2023/08/31 10:10:40;;;;;;;;;2.50;2.50;;;;;;;;5072028;27;45458;-70
2023/08/31 10:13:15;;;;;;;;;3.00;2.00;;;;;;;;5070330;27;45869;-71
2023/08/31 10:16:10;;;;;;;;;6.25;3.00;;;;;;;;5072545;27;45919;-69
2023/08/31 10:18:41;;;;;;;;;3.75;3.75;;;;;;;;5066796;28;46374;-67
2023/08/31 10:21:09;;;;;;;;;3.00;3.00;;;;;;;;5067671;27;45691;-71
2023/08/31 10:23:35;;;;;;;;;3.00;2.25;;;;;;;;5066776;27;45699;-71
2023/08/31 10:26:01;;;;;;;;;5.50;4.50;;;;;;;;5071808;27;45858;-68
2023/08/31 10:28:29;;;;;;;;;5.00;4.25;;;;;;;;5063001;28;45898;-71
2023/08/31 10:31:16;;;;;;;;;9.67;8.67;;;;;;;;5064772;28;46011;-72
2023/08/31 10:33:42;;;;;;;;;12.25;9.75;;;;;;;;5068037;28;45489;-72
2023/08/31 10:36:17;;;;;;;;;5.75;4.50;;;;;;;;5066036;27;45570;-67
2023/08/31 10:38:49;;;;;;;;;6.50;3.00;;;;;;;;5069916;27;45987;-69
2023/08/31 10:41:19;;;;;;;;;4.25;3.00;;;;;;;;5064392;27;45495;-69
2023/08/31 10:43:57;;;;;;;;;4.50;3.25;;;;;;;;5063856;27;45749;-69
2023/08/31 10:46:37;;;;;;;;;4.00;3.00;;;;;;;;5065657;27;45435;-75
2023/08/31 10:49:12;;;;;;;;;4.00;2.75;;;;;;;;5068420;27;47290;-70
2023/08/31 10:51:41;;;;;;;;;9.00;4.00;;;;;;;;5060533;27;46947;-71
2023/08/31 10:54:10;;;;;;;;;5.50;4.25;;;;;;;;5052270;28;45791;-69
2023/08/31 10:56:53;;;;;;;;;3.75;3.00;;;;;;;;5045219;28;45855;-69
2023/08/31 10:59:19;;;;;;;;;5.25;3.25;;;;;;;;5043463;28;46484;-70
2023/08/31 11:01:57;;;;;;;;;3.75;3.25;;;;;;;;5044162;28;46014;-68
2023/08/31 11:04:24;;;;;;;;;5.00;4.00;;;;;;;;5043096;28;45553;-71
2023/08/31 11:06:50;;;;;;;;;4.00;4.00;;;;;;;;5065981;27;46257;-72
2023/08/31 11:09:36;;;;;;;;;6.50;4.25;;;;;;;;5042387;28;46408;-70
2023/08/31 11:12:04;;;;;;;;;9.25;7.00;;;;;;;;5051708;28;45465;-70
2023/08/31 11:14:29;;;;;;;;;5.25;5.25;;;;;;;;5043052;28;45516;-71
2023/08/31 11:16:55;;;;;;;;;5.75;5.25;;;;;;;;5048679;28;46021;-71
2023/08/31 11:19:20;;;;;;;;;2.50;2.50;;;;;;;;5043239;28;45640;-70
2023/08/31 11:21:49;;;;;;;;;7.50;3.50;;;;;;;;5048415;28;45680;-71
2023/08/31 11:24:16;;;;;;;;;6.50;4.50;;;;;;;;5054521;28;45507;-75
2023/08/31 11:26:45;;;;;;;;;3.00;3.00;;;;;;;;5049861;28;45806;-72
2023/08/31 11:29:10;;;;;;;;;5.00;3.00;;;;;;;;5047698;28;46710;-70
2023/08/31 11:31:39;;;;;;;;;6.00;3.00;;;;;;;;5049593;28;46408;-69
2023/08/31 11:34:08;;;;;;;;;5.00;4.00;;;;;;;;5052100;28;45485;-71
2023/08/31 11:36:34;;;;;;;;;2.00;2.00;;;;;;;;5050369;28;46308;-70
2023/08/31 11:39:00;;;;;;;;;5.50;4.25;;;;;;;;5049372;28;45406;-71
2023/08/31 11:41:29;;;;;;;;;6.00;5.00;;;;;;;;5075398;27;45699;-71
2023/08/31 11:43:55;;;;;;;;;5.75;4.00;;;;;;;;5053665;28;46020;-68
2023/08/31 11:46:40;;;;;;;;;5.75;4.50;;;;;;;;5053810;28;46564;-71
2023/08/31 11:49:06;;;;;;;;;2.00;0.00;;;;;;;;5051580;28;45776;-73
2023/08/31 11:51:33;;;;;;;;;2.00;2.00;;;;;;;;5052546;28;47192;-72
2023/08/31 11:53:59;;;;;;;;;2.00;2.00;;;;;;;;5048530;28;45820;-77
2023/08/31 11:56:25;;;;;;;;;2.75;2.00;;;;;;;;5054786;28;45894;-71
2023/08/31 11:58:50;;;;;;;;;4.75;3.75;;;;;;;;5056031;28;48211;-72
2023/08/31 12:01:24;;;;;;;;;3.25;3.25;;;;;;;;5052804;28;45870;-72
2023/08/31 12:03:52;;;;;;;;;3.50;2.00;;;;;;;;5054248;28;45393;-70
2023/08/31 12:06:31;;;;;;;;;2.25;2.25;;;;;;;;5053877;28;45606;-73
2023/08/31 12:08:56;;;;;;;;;5.25;3.50;;;;;;;;5053709;28;46150;-71
2023/08/31 12:11:21;;;;;;;;;4.25;4.00;;;;;;;;5047215;28;45907;-70
2023/08/31 12:13:46;;;;;;;;;5.25;4.25;;;;;;;;5040344;28;45530;-72
2023/08/31 12:16:12;;;;;;;;;0.00;0.00;;;;;;;;5047906;28;45668;-70
2023/08/31 12:18:37;;;;;;;;;4.00;3.00;;;;;;;;5049378;28;45731;-70
2023/08/31 12:21:04;;;;;;;;;4.00;3.75;;;;;;;;5037853;28;45681;-70
2023/08/31 12:23:29;;;;;;;;;8.00;6.75;;;;;;;;5050158;28;45400;-69
2023/08/31 12:25:55;;;;;;;;;2.25;2.25;;;;;;;;5048036;27;45489;-68
2023/08/31 12:28:22;;;;;;;;;5.25;2.25;;;;;;;;5063327;28;47068;-67
2023/08/31 12:30:48;;;;;;;;;2.00;2.00;;;;;;;;5050490;28;45581;-68
2023/08/31 12:33:13;;;;;;;;;3.25;2.50;;;;;;;;5047588;28;45362;-69
2023/08/31 12:35:39;;;;;;;;;3.25;2.50;;;;;;;;5043065;28;46421;-69
2023/08/31 12:38:05;;;;;;;;;6.00;4.00;;;;;;;;5048456;28;45462;-69
2023/08/31 12:40:39;;;;;;;;;1.00;1.00;;;;;;;;5044032;28;45416;-69
2023/08/31 12:43:09;;;;;;;;;3.75;2.50;;;;;;;;5046351;28;45621;-68
2023/08/31 12:45:34;;;;;;;;;4.25;2.50;;;;;;;;5042852;28;45532;-70
2023/08/31 12:48:04;;;;;;;;;3.00;2.00;;;;;;;;5049051;28;45428;-71
2023/08/31 12:50:29;;;;;;;;;5.25;3.00;;;;;;;;5049992;28;45744;-69
2023/08/31 12:52:55;;;;;;;;;1.75;1.50;;;;;;;;5046112;28;45606;-70
2023/08/31 12:55:20;;;;;;;;;2.00;2.00;;;;;;;;5038470;28;45891;-68
2023/08/31 12:57:45;;;;;;;;;5.50;3.00;;;;;;;;5045971;28;46238;-69
2023/08/31 13:00:14;;;;;;;;;2.00;2.00;;;;;;;;5040409;28;45789;-69
2023/08/31 13:02:43;;;;;;;;;2.75;2.75;;;;;;;;5045378;28;45487;-68
2023/08/31 13:05:09;;;;;;;;;2.75;2.25;;;;;;;;5050586;28;45455;-69
2023/08/31 13:07:37;;;;;;;;;3.75;3.00;;;;;;;;5038421;28;45770;-69
2023/08/31 13:10:04;;;;;;;;;5.25;3.75;;;;;;;;5051193;28;45729;-69
2023/08/31 13:12:30;;;;;;;;;2.75;2.75;;;;;;;;5047772;28;45904;-70
2023/08/31 13:14:55;;;;;;;;;3.25;3.00;;;;;;;;5039423;28;45939;-68
2023/08/31 13:17:23;;;;;;;;;5.75;4.25;;;;;;;;5039627;28;45530;-67
2023/08/31 13:19:48;;;;;;;;;5.25;3.75;;;;;;;;5036786;28;45900;-68
2023/08/31 13:22:15;;;;;;;;;2.50;2.50;;;;;;;;5037503;28;45657;-68
2023/08/31 13:24:40;;;;;;;;;4.75;3.75;;;;;;;;5040728;28;45720;-69
2023/08/31 13:27:06;;;;;;;;;4.25;2.75;;;;;;;;5047437;28;46256;-71
2023/08/31 13:29:31;;;;;;;;;4.25;2.00;;;;;;;;5048020;28;45477;-69
2023/08/31 13:31:57;;;;;;;;;2.50;2.50;;;;;;;;5048260;28;45479;-66
2023/08/31 13:34:22;;;;;;;;;5.25;3.25;;;;;;;;5049179;28;45424;-69
2023/08/31 13:36:48;;;;;;;;;5.25;4.25;;;;;;;;5050088;28;45940;-69
2023/08/31 13:39:13;;;;;;;;;7.50;7.50;;;;;;;;5050898;28;45702;-70
2023/08/31 13:41:39;;;;;;;;;12.67;8.00;;;;;;;;5050516;28;45820;-70
2023/08/31 13:44:27;;;;;;;;;3.50;3.00;;;;;;;;5065172;27;45492;-72
2023/08/31 13:46:55;;;;;;;;;5.50;5.00;;;;;;;;5053046;28;46588;-71
2023/08/31 13:49:21;;;;;;;;;5.75;3.75;;;;;;;;5056019;28;45418;-68
2023/08/31 13:51:46;;;;;;;;;11.00;5.50;;;;;;;;5048832;28;45450;-69
2023/08/31 13:54:11;;;;;;;;;7.33;1.00;;;;;;;;5050232;28;45761;-69
2023/08/31 13:56:39;;;;;;;;;6.75;5.50;;;;;;;;5049464;28;45591;-68
2023/08/31 13:59:05;;;;;;;;;4.00;4.00;;;;;;;;5053774;27;45745;-67
2023/08/31 14:01:30;;;;;;;;;6.67;6.67;;;;;;;;5054031;28;45398;-67
2023/08/31 14:03:55;;;;;;;;;8.75;6.75;;;;;;;;5055559;28;45653;-67
2023/08/31 14:06:21;;;;;;;;;11.00;7.75;;;;;;;;5054839;28;46026;-69
2023/08/31 14:08:46;;;;;;;;;9.50;5.25;;;;;;;;5052204;28;45751;-67
2023/08/31 14:11:11;;;;;;;;;5.00;5.00;;;;;;;;5054367;28;45713;-67
2023/08/31 14:13:36;;;;;;;;;6.50;6.00;;;;;;;;5053990;28;45681;-70
2023/08/31 14:16:21;;;;;;;;;10.67;9.67;;;;;;;;5051442;28;45686;-69
2023/08/31 14:18:46;;;;;;;;;6.75;4.25;;;;;;;;5055149;28;45332;-71
2023/08/31 14:21:30;;;;;;;;;5.00;5.00;;;;;;;;5050119;28;45701;-71
2023/08/31 14:23:55;;;;;;;;;7.00;7.00;;;;;;;;5034798;28;45766;-69
2023/08/31 14:26:59;;;;;;;;;6.25;6.25;;;;;;;;5054117;28;46316;-70
2023/08/31 14:29:25;;;;;;;;;6.25;4.25;;;;;;;;5048971;28;45663;-70
2023/08/31 14:31:51;;;;;;;;;6.00;4.50;;;;;;;;5054826;28;45622;-69
2023/08/31 14:34:16;;;;;;;;;5.50;3.75;;;;;;;;5055805;28;45914;-68
2023/08/31 14:36:41;;;;;;;;;3.75;3.00;;;;;;;;5052579;28;45906;-67
2023/08/31 14:39:07;;;;;;;;;4.00;3.00;;;;;;;;5053086;28;45404;-68